Airfield :
LOGIN :

Register | Disclaimer

   EN    FR    IT 

 










Legend :    VFR   Marginal VFR   IFR   Intensive IFR   Very Intensive IFR
Visi :
Ceiling :
>= 8 km
>= 3000ft
5 to 8 km
1000 to 3000 ft
1500m to 5 km
500 to 1000 ft
800 to 1500m
200 to 500 ft
< 800m
< 200 ft
Symbols :   Thunderstorms  Fog  Heavy snow  Heavy precipitations  Wind > 20 kt
SIGMETs :     Misc.  Thunderstorms  Icing  Turbulence  Mountain Waves  Volcanic Ashes






- Airport Elevation : 202 ft
- IATA code : LGW


EGKK - London Gatwick

CURRENT METAR :
  • 031750Z 23016G27KT 9999 FEW026 17/10 Q1016

EXPIRED METARs :
  • 031720Z 23016KT 9999 FEW027 17/10 Q1016
  • 031650Z 23017KT 9000 FEW028 18/10 Q1016
  • 031620Z 23015G25KT 6000 SCT031 19/10 Q1016
  • 031550Z 24018KT 9999 SCT031 18/10 Q1016
  • 031520Z 22014KT 9999 SCT031 18/11 Q1016

TAF TAF EGKK
Valid from the 03 at 18:00 until the 05 at 00:00 UTC


031657Z 0318/0424 23016G26KT 9999 SCT030
TEMPO 0318/0418 7000 RA -RADZ
BECMG 0319/0322 BKN010
BECMG 0323/0402 22013KT
PROB30
TEMPO 0400/0412 4000 RADZ BKN005
PROB40 0413/0418 BKN020
PROB30
TEMPO 0418/0424 7000 -RADZ BKN008



MET'MAP, your aeronautical weather chart ! - Copyright ORBIFLY December 2007 - Disclaimer

ORBIFLY MET'MAP TEAM :

Programming & Development : Alexandra Zaïnal
Concept & original design : Baudouin d'Aumeries
Assistance for programming : Marc-Olivier Méhu
Technical & hardware support : Manuel Goepfert

Contact : metmap@orbifly.com




SOURCES & CREDITS :

   NOAA